Flight Track Log - Related Links

Times and Time Zones

All times are in EDT time to prevent confusion due to time zone crossing. See the CES9734 flight status page for this flight to view local times or setup timezone preferences in your user account.

Time Position Orientation Groundspeed Altitude Reporting Facility
EDT Latitude Longitude Course Direction KTS MPH feet Rate Location/Type
Mon 07:56:00 PM 23.9055 108.6912 286° West  Level Estimated
Mon 07:57:00 PM 23.9301 108.5835 284° West  Level Estimated
Mon 07:58:00 PM 23.9546 108.4757 284° West  Level Estimated
Mon 07:59:00 PM 23.9790 108.3679 284° West  Level Estimated
Mon 08:00:00 PM 24.0034 108.2601 284° West  Level Estimated
Mon 08:01:00 PM 24.0277 108.1522 284° West  Level Estimated
Mon 08:02:00 PM 24.0519 108.0443 284° West  Level Estimated
Mon 08:03:00 PM 24.0760 107.9363 284° West  Level Estimated
Mon 08:04:00 PM 24.1000 107.8283 284° West  Level Estimated
Mon 08:05:00 PM 24.1240 107.7203 284° West  Level Estimated
Mon 08:06:00 PM 24.1479 107.6122 284° West  Level Estimated
Mon 08:07:00 PM 24.1718 107.5041 284° West  Level Estimated
Mon 08:08:00 PM 24.1955 107.3959 284° West  Level Estimated
Mon 08:09:00 PM 24.2192 107.2877 284° West  Level Estimated
Mon 08:10:00 PM 24.2428 107.1795 283° West  Level Estimated
Mon 08:11:00 PM 24.2663 107.0712 283° West  Level Estimated
Mon 08:12:00 PM 24.2897 106.9629 283° West  Level Estimated
Mon 08:13:00 PM 24.3131 106.8545 283° West  Level Estimated
Mon 08:14:00 PM 24.3364 106.7461 283° West  Level Estimated
Mon 08:15:00 PM 24.3596 106.6376 283° West  Level Estimated
Mon 08:16:00 PM 24.3827 106.5292 283° West  Level Estimated
Mon 08:17:00 PM 24.4058 106.4206 283° West  Level Estimated
Mon 08:18:00 PM 24.4288 106.3121 283° West  Level Estimated
Mon 08:19:00 PM 24.4517 106.2035 283° West  Level Estimated
Mon 08:20:00 PM 24.4745 106.0948 283° West  Level Estimated
Mon 08:21:00 PM 24.4973 105.9862 283° West  Level Estimated
Mon 08:22:00 PM 24.5199 105.8774 283° West  Level Estimated
Mon 08:23:00 PM 24.5425 105.7687 283° West  Level Estimated
Mon 08:24:00 PM 24.5651 105.6599 283° West  Level Estimated
Mon 08:25:00 PM 24.5875 105.5510 283° West  Level Estimated
Mon 08:26:00 PM 24.6098 105.4422 283° West  Level Estimated
Mon 08:27:00 PM 24.6321 105.3332 283° West  Level Estimated
Mon 08:28:00 PM 24.6543 105.2243 283° West  Level Estimated
Mon 08:29:00 PM 24.6765 105.1153 283° West  Level Estimated
Mon 08:30:00 PM 24.6985 105.0063 283° West  Level Estimated
Mon 08:31:00 PM 24.7205 104.8972 283° West  Level Estimated
Mon 08:32:00 PM 24.7424 104.7881 282° West  Level Estimated
Mon 08:33:00 PM 24.7642 104.6789 282° West  Level Estimated
Mon 08:34:00 PM 24.7859 104.5697 282° West  Level Estimated
Mon 08:35:00 PM 24.8076 104.4605 282° West  Level Estimated
Mon 08:36:00 PM 24.8291 104.3513 282° West  Level Estimated
Mon 08:37:00 PM 24.8506 104.2420 282° West  Level Estimated
Mon 08:38:00 PM 24.8720 104.1326 282° West  Level Estimated
Mon 08:39:00 PM 24.8934 104.0232 282° West  Level Estimated
Mon 08:40:00 PM 24.9146 103.9138 282° West  Level Estimated
Mon 08:41:00 PM 24.9358 103.8044 282° West  Level Estimated
Mon 08:42:00 PM 24.9569 103.6949 282° West  Level Estimated
Mon 08:43:00 PM 24.9779 103.5854 282° West  Level Estimated
Mon 08:44:00 PM 24.9988 103.4758 282° West  Level Estimated
Mon 08:45:00 PM 25.0196 103.3662 282° West  Level Estimated
Mon 08:46:00 PM 25.0404 103.2566 282° West  Level Estimated
Mon 08:47:00 PM 25.0611 103.1469 282° West  Level Estimated
Mon 08:48:00 PM 25.0817 103.0372 282° West  Level Estimated
Mon 08:49:00 PM 25.1019 102.9292 282° West  Level Estimated
Mon 08:50:00 PM 25.1019 102.9292 326° Northwest  Level Estimated
Mon 08:51:00 PM 25.1019 102.9292 326° Northwest  Level Estimated
Mon 08:52:00 PM 25.1019 102.9292 326° Northwest  Level Estimated
Mon 08:53:00 PM 25.1019 102.9292 326° Northwest  Level Estimated
Mon 08:54:00 PM 25.1019 102.9292 326° Northwest  Level Estimated
Mon 08:55:00 PM 25.1019 102.9292 326° Northwest  Level Estimated
Mon 08:56:00 PM 25.1019 102.9292 326° Northwest  Level Estimated
Mon 08:57:00 PM 25.1019 102.9292 326° Northwest  Level Estimated
Mon 08:58:00 PM 25.1019 102.9292 326° Northwest  Level Estimated
Mon 08:59:00 PM 25.1019 102.9292 326° Northwest  Level Estimated
Mon 09:00:00 PM 25.1019 102.9292 326° Northwest  Level Estimated
Mon 09:01:00 PM 25.1019 102.9292 326° Northwest  Level Estimated
Mon 09:02:00 PM 25.1019 102.9292 326° Northwest  Level Estimated
Mon 09:03:00 PM 25.1019 102.9292 326° Northwest  Level Estimated
Mon 09:04:00 PM 25.1019 102.9292 326° Northwest  Level Estimated
Mon 09:05:00 PM 25.1019 102.9292 326° Northwest  Level Estimated

Login

Don't have an account? Register now (free) for customized features, flight alerts, and more!